sensor_id;sensor_type;location;lat;lon;timestamp;pressure;altitude;pressure_sealevel;temperature;humidity
4123;BME280;2075;51.062;6.920;2022-07-09T00:02:02;93229.66;;;-144.48;86.18
4123;BME280;2075;51.062;6.920;2022-07-09T00:04:48;93229.66;;;-144.48;86.70
4123;BME280;2075;51.062;6.920;2022-07-09T00:07:35;93254.03;;;-144.48;87.22
4123;BME280;2075;51.062;6.920;2022-07-09T00:10:20;93254.03;;;-144.48;87.79
4123;BME280;2075;51.062;6.920;2022-07-09T00:13:06;93266.22;;;-144.48;88.87
4123;BME280;2075;51.062;6.920;2022-07-09T00:15:51;93249.97;;;-144.48;89.32
4123;BME280;2075;51.062;6.920;2022-07-09T00:18:37;93258.09;;;-144.48;90.10
4123;BME280;2075;51.062;6.920;2022-07-09T00:21:22;93223.56;;;-144.48;92.11
4123;BME280;2075;51.062;6.920;2022-07-09T00:24:09;93115.91;;;-144.48;93.82
4123;BME280;2075;51.062;6.920;2022-07-09T00:26:54;92640.69;;;-144.48;96.10
4123;BME280;2075;51.062;6.920;2022-07-09T00:29:40;89527.00;;;-144.48;98.05
4123;BME280;2075;51.062;6.920;2022-07-09T00:32:25;82394.72;;;-144.48;99.66
4123;BME280;2075;51.062;6.920;2022-07-09T00:35:10;68743.09;;;-144.48;100.00
4123;BME280;2075;51.062;6.920;2022-07-09T00:37:56;57595.16;;;-144.48;100.00
4123;BME280;2075;51.062;6.920;2022-07-09T00:40:43;51939.56;;;-144.48;100.00
4123;BME280;2075;51.062;6.920;2022-07-09T00:43:28;46549.84;;;-144.48;100.00
4123;BME280;2075;51.062;6.920;2022-07-09T00:46:14;42961.47;;;-144.48;100.00
4123;BME280;2075;51.062;6.920;2022-07-09T00:49:00;40144.72;;;-144.48;100.00
4123;BME280;2075;51.062;6.920;2022-07-09T00:51:47;37586.06;;;-144.48;100.00
4123;BME280;2075;51.062;6.920;2022-07-09T00:54:34;36818.88;;;-144.48;100.00
4123;BME280;2075;51.062;6.920;2022-07-09T00:57:21;37330.31;;;-144.48;100.00
4123;BME280;2075;51.062;6.920;2022-07-09T01:00:07;35029.38;;;-144.48;100.00
4123;BME280;2075;51.062;6.920;2022-07-09T01:02:53;37586.06;;;-144.48;100.00
4123;BME280;2075;51.062;6.920;2022-07-09T01:05:38;37841.84;;;-144.48;100.00
4123;BME280;2075;51.062;6.920;2022-07-09T01:08:25;35284.97;;;-144.48;100.00
4123;BME280;2075;51.062;6.920;2022-07-09T01:11:10;35029.38;;;-144.48;100.00
4123;BME280;2075;51.062;6.920;2022-07-09T01:13:57;34007.25;;;-144.48;100.00
4123;BME280;2075;51.062;6.920;2022-07-09T01:16:42;33751.78;;;-144.48;100.00
4123;BME280;2075;51.062;6.920;2022-07-09T01:19:28;35284.97;;;-144.48;100.00
4123;BME280;2075;51.062;6.920;2022-07-09T01:22:15;37330.31;;;-144.48;100.00
4123;BME280;2075;51.062;6.920;2022-07-09T01:25:01;39888.75;;;-144.48;100.00
4123;BME280;2075;51.062;6.920;2022-07-09T01:27:51;41936.91;;;-144.48;100.00
4123;BME280;2075;51.062;6.920;2022-07-09T01:30:38;42705.31;;;-144.48;100.00
4123;BME280;2075;51.062;6.920;2022-07-09T01:33:24;43217.66;;;-144.48;100.00
4123;BME280;2075;51.062;6.920;2022-07-09T01:36:09;43986.31;;;-144.48;100.00
4123;BME280;2075;51.062;6.920;2022-07-09T01:38:56;45267.84;;;-144.48;100.00
4123;BME280;2075;51.062;6.920;2022-07-09T01:41:42;45524.19;;;-144.48;100.00
4123;BME280;2075;51.062;6.920;2022-07-09T01:44:27;46293.41;;;-144.48;100.00
4123;BME280;2075;51.062;6.920;2022-07-09T01:47:13;46293.41;;;-144.48;100.00
4123;BME280;2075;51.062;6.920;2022-07-09T01:49:59;48088.88;;;-144.48;100.00
4123;BME280;2075;51.062;6.920;2022-07-09T01:52:45;47575.78;;;-144.48;100.00
4123;BME280;2075;51.062;6.920;2022-07-09T01:55:31;45011.50;;;-144.48;100.00
4123;BME280;2075;51.062;6.920;2022-07-09T01:58:17;44498.88;;;-144.48;100.00
4123;BME280;2075;51.062;6.920;2022-07-09T02:01:03;45267.84;;;-144.48;100.00
4123;BME280;2075;51.062;6.920;2022-07-09T02:03:48;48345.44;;;-144.48;100.00
4123;BME280;2075;51.062;6.920;2022-07-09T02:06:34;38865.16;;;-144.48;100.00
4123;BME280;2075;51.062;6.920;2022-07-09T02:09:19;33751.78;;;-144.48;100.00
4123;BME280;2075;51.062;6.920;2022-07-09T02:12:06;28901.31;;;-144.48;100.00
4123;BME280;2075;51.062;6.920;2022-07-09T02:14:53;24312.59;;;-144.48;100.00
4123;BME280;2075;51.062;6.920;2022-07-09T02:17:38;19475.84;;;-144.48;100.00
4123;BME280;2075;51.062;6.920;2022-07-09T02:20:23;20748.00;;;-144.48;100.00
4123;BME280;2075;51.062;6.920;2022-07-09T02:23:10;22020.63;;;-144.48;100.00
4123;BME280;2075;51.062;6.920;2022-07-09T02:25:55;24312.59;;;-144.48;100.00
4123;BME280;2075;51.062;6.920;2022-07-09T02:28:42;31708.63;;;-144.48;100.00
4123;BME280;2075;51.062;6.920;2022-07-09T02:31:27;34262.75;;;-144.48;100.00
4123;BME280;2075;51.062;6.920;2022-07-09T02:34:13;37330.31;;;-144.48;100.00
4123;BME280;2075;51.062;6.920;2022-07-09T02:36:58;39121.03;;;-144.48;100.00
4123;BME280;2075;51.062;6.920;2022-07-09T02:39:43;40144.72;;;-144.48;100.00
4123;BME280;2075;51.062;6.920;2022-07-09T02:42:29;44498.88;;;-144.48;100.00
4123;BME280;2075;51.062;6.920;2022-07-09T02:45:16;45780.56;;;-144.48;100.00
4123;BME280;2075;51.062;6.920;2022-07-09T02:48:01;50398.75;;;-144.48;100.00
4123;BME280;2075;51.062;6.920;2022-07-09T02:50:46;50912.28;;;-144.48;100.00
4123;BME280;2075;51.062;6.920;2022-07-09T02:53:32;53481.06;;;-144.48;100.00
4123;BME280;2075;51.062;6.920;2022-07-09T02:56:17;58881.84;;;-144.48;100.00
4123;BME280;2075;51.062;6.920;2022-07-09T02:59:03;68267.19;;;-144.48;100.00
4123;BME280;2075;51.062;6.920;2022-07-09T03:01:49;70276.09;;;-144.48;100.00
4123;BME280;2075;51.062;6.920;2022-07-09T03:04:35;70219.59;;;-144.48;100.00
4123;BME280;2075;51.062;6.920;2022-07-09T03:07:20;74067.16;;;-144.48;100.00
4123;BME280;2075;51.062;6.920;2022-07-09T03:10:07;75806.63;;;-144.48;100.00
4123;BME280;2075;51.062;6.920;2022-07-09T03:12:52;79444.00;;;-144.48;100.00
4123;BME280;2075;51.062;6.920;2022-07-09T03:15:38;81566.72;;;-144.48;100.00
4123;BME280;2075;51.062;6.920;2022-07-09T03:18:25;82101.16;;;-144.48;100.00
4123;BME280;2075;51.062;6.920;2022-07-09T03:21:10;82915.13;;;-144.48;100.00
4123;BME280;2075;51.062;6.920;2022-07-09T03:23:55;85933.69;;;-144.48;100.00
4123;BME280;2075;51.062;6.920;2022-07-09T03:26:41;89080.66;;;-144.48;100.00
4123;BME280;2075;51.062;6.920;2022-07-09T03:29:26;90624.78;;;-144.48;99.50
4123;BME280;2075;51.062;6.920;2022-07-09T03:32:12;90890.66;;;-144.48;99.76
4123;BME280;2075;51.062;6.920;2022-07-09T03:34:58;90241.22;;;-144.48;100.00
4123;BME280;2075;51.062;6.920;2022-07-09T03:37:44;88863.59;;;-144.48;100.00
4123;BME280;2075;51.062;6.920;2022-07-09T03:40:29;86527.59;;;-144.48;100.00
4123;BME280;2075;51.062;6.920;2022-07-09T03:43:15;88163.84;;;-144.48;100.00
4123;BME280;2075;51.062;6.920;2022-07-09T03:46:01;88025.94;;;-144.48;100.00
4123;BME280;2075;51.062;6.920;2022-07-09T03:48:46;87068.84;;;-144.48;100.00
4123;BME280;2075;51.062;6.920;2022-07-09T03:51:34;88857.53;;;-144.48;100.00
4123;BME280;2075;51.062;6.920;2022-07-09T03:54:20;89498.59;;;-144.48;100.00
4123;BME280;2075;51.062;6.920;2022-07-09T03:57:05;92397.00;;;-144.48;98.45
4123;BME280;2075;51.062;6.920;2022-07-09T03:59:51;92882.34;;;-144.48;97.29
4123;BME280;2075;51.062;6.920;2022-07-09T04:02:36;93126.06;;;-144.48;96.17
4123;BME280;2075;51.062;6.920;2022-07-09T04:05:22;93245.91;;;-144.48;94.97
4123;BME280;2075;51.062;6.920;2022-07-09T04:08:09;93249.97;;;-144.48;94.41
4123;BME280;2075;51.062;6.920;2022-07-09T04:10:54;93268.25;;;-144.48;93.68
4123;BME280;2075;51.062;6.920;2022-07-09T04:13:40;93266.22;;;-144.48;92.71
4123;BME280;2075;51.062;6.920;2022-07-09T04:16:26;93144.34;;;-144.48;91.71
4123;BME280;2075;51.062;6.920;2022-07-09T04:19:12;93245.91;;;-144.48;90.18
4123;BME280;2075;51.062;6.920;2022-07-09T04:21:57;93229.66;;;-144.48;89.68
4123;BME280;2075;51.062;6.920;2022-07-09T04:24:44;93223.56;;;-144.48;89.20
4123;BME280;2075;51.062;6.920;2022-07-09T04:27:29;93193.09;;;-144.48;88.97
4123;BME280;2075;51.062;6.920;2022-07-09T04:30:15;93201.22;;;-144.48;89.15
4123;BME280;2075;51.062;6.920;2022-07-09T04:33:00;93201.22;;;-144.48;88.34
4123;BME280;2075;51.062;6.920;2022-07-09T04:35:45;93266.22;;;-144.48;89.12
4123;BME280;2075;51.062;6.920;2022-07-09T04:38:31;93256.06;;;-144.48;90.10
4123;BME280;2075;51.062;6.920;2022-07-09T04:41:18;93282.44;;;-144.48;90.68
4123;BME280;2075;51.062;6.920;2022-07-09T04:44:04;93296.66;;;-144.48;90.44
4123;BME280;2075;51.062;6.920;2022-07-09T04:46:49;93270.25;;;-144.48;91.31
4123;BME280;2075;51.062;6.920;2022-07-09T04:49:34;93221.53;;;-144.48;89.81
4123;BME280;2075;51.062;6.920;2022-07-09T04:52:20;93164.66;;;-144.48;87.86
4123;BME280;2075;51.062;6.920;2022-07-09T04:55:07;93061.06;;;-144.48;84.71
4123;BME280;2075;51.062;6.920;2022-07-09T04:57:55;92920.94;;;-144.48;80.63
4123;BME280;2075;51.062;6.920;2022-07-09T05:00:41;92829.56;;;-144.48;77.31
4123;BME280;2075;51.062;6.920;2022-07-09T05:03:26;92579.78;;;-144.48;70.73
4123;BME280;2075;51.062;6.920;2022-07-09T05:06:13;92431.53;;;-144.48;63.94
4123;BME280;2075;51.062;6.920;2022-07-09T05:08:58;91558.50;;;-144.48;45.35
4123;BME280;2075;51.062;6.920;2022-07-09T05:11:47;90868.34;;;-144.48;36.84
4123;BME280;2075;51.062;6.920;2022-07-09T05:14:33;90363.00;;;-144.48;32.83
4123;BME280;2075;51.062;6.920;2022-07-09T05:17:19;89928.72;;;-144.48;31.08
4123;BME280;2075;51.062;6.920;2022-07-09T05:20:06;89940.91;;;-144.48;30.50
4123;BME280;2075;51.062;6.920;2022-07-09T05:22:52;90779.03;;;-144.48;33.79
4123;BME280;2075;51.062;6.920;2022-07-09T05:25:37;91698.56;;;-144.48;40.07
4123;BME280;2075;51.062;6.920;2022-07-09T05:28:22;92120.88;;;-144.48;47.25
4123;BME280;2075;51.062;6.920;2022-07-09T05:31:09;92346.25;;;-144.48;54.06
4123;BME280;2075;51.062;6.920;2022-07-09T05:33:55;92437.63;;;-144.48;58.77
4123;BME280;2075;51.062;6.920;2022-07-09T05:36:40;92579.78;;;-144.48;62.59
4123;BME280;2075;51.062;6.920;2022-07-09T05:39:25;92624.44;;;-144.48;64.67
4123;BME280;2075;51.062;6.920;2022-07-09T05:42:11;92622.41;;;-144.48;65.03
4123;BME280;2075;51.062;6.920;2022-07-09T05:44:56;91999.03;;;-144.48;52.10
4123;BME280;2075;51.062;6.920;2022-07-09T05:47:43;90511.13;;;-144.48;35.18
4123;BME280;2075;51.062;6.920;2022-07-09T05:50:28;90186.44;;;-144.48;32.31
4123;BME280;2075;51.062;6.920;2022-07-09T05:53:14;89636.56;;;-144.48;29.71
4123;BME280;2075;51.062;6.920;2022-07-09T05:56:00;90764.81;;;-144.48;33.52
4123;BME280;2075;51.062;6.920;2022-07-09T05:58:45;91568.66;;;-144.48;39.16
4123;BME280;2075;51.062;6.920;2022-07-09T06:01:31;91816.31;;;-144.48;42.50
4123;BME280;2075;51.062;6.920;2022-07-09T06:04:18;91812.25;;;-144.48;42.72
4123;BME280;2075;51.062;6.920;2022-07-09T06:07:04;91089.59;;;-144.48;37.90
4123;BME280;2075;51.062;6.920;2022-07-09T06:09:50;89713.66;;;-144.48;30.92
4123;BME280;2075;51.062;6.920;2022-07-09T06:12:36;89401.19;;;-144.48;29.32
4123;BME280;2075;51.062;6.920;2022-07-09T06:15:21;88983.28;;;-144.48;27.50
4123;BME280;2075;51.062;6.920;2022-07-09T06:18:06;89220.66;;;-144.48;28.33
4123;BME280;2075;51.062;6.920;2022-07-09T06:20:54;88646.56;;;-144.48;26.97
4123;BME280;2075;51.062;6.920;2022-07-09T06:23:39;88078.69;;;-144.48;25.58
4123;BME280;2075;51.062;6.920;2022-07-09T06:26:24;88068.53;;;-144.48;25.76
4123;BME280;2075;51.062;6.920;2022-07-09T06:29:10;87490.59;;;-144.48;25.09
4123;BME280;2075;51.062;6.920;2022-07-09T06:31:55;86951.28;;;-144.48;23.80
4123;BME280;2075;51.062;6.920;2022-07-09T06:34:44;88741.91;;;-144.48;26.95
4123;BME280;2075;51.062;6.920;2022-07-09T06:37:30;87573.72;;;-144.48;24.89
4123;BME280;2075;51.062;6.920;2022-07-09T06:40:16;87137.78;;;-144.48;23.78
4123;BME280;2075;51.062;6.920;2022-07-09T06:43:01;86748.53;;;-144.48;23.57
4123;BME280;2075;51.062;6.920;2022-07-09T06:45:52;86351.22;;;-144.48;23.21
4123;BME280;2075;51.062;6.920;2022-07-09T06:48:37;86087.72;;;-144.48;22.62
4123;BME280;2075;51.062;6.920;2022-07-09T06:51:23;85907.34;;;-144.48;22.60
4123;BME280;2075;51.062;6.920;2022-07-09T06:54:10;86355.28;;;-144.48;22.53
4123;BME280;2075;51.062;6.920;2022-07-09T06:56:55;86304.59;;;-144.48;22.76
4123;BME280;2075;51.062;6.920;2022-07-09T06:59:41;86156.63;;;-144.48;22.60
4123;BME280;2075;51.062;6.920;2022-07-09T07:02:26;86924.91;;;-144.48;23.47
4123;BME280;2075;51.062;6.920;2022-07-09T07:05:12;87409.50;;;-144.48;23.83
4123;BME280;2075;51.062;6.920;2022-07-09T07:07:57;87908.31;;;-144.48;24.66
4123;BME280;2075;51.062;6.920;2022-07-09T07:10:44;86945.19;;;-144.48;23.30
4123;BME280;2075;51.062;6.920;2022-07-09T07:13:29;85295.31;;;-144.48;22.11
4123;BME280;2075;51.062;6.920;2022-07-09T07:16:15;88624.25;;;-144.48;25.00
4123;BME280;2075;51.062;6.920;2022-07-09T07:19:00;89733.94;;;-144.48;27.31
4123;BME280;2075;51.062;6.920;2022-07-09T07:21:45;89587.84;;;-144.48;28.00
4123;BME280;2075;51.062;6.920;2022-07-09T07:24:31;89871.91;;;-144.48;28.43
4123;BME280;2075;51.062;6.920;2022-07-09T07:27:18;89944.97;;;-144.48;29.22
4123;BME280;2075;51.062;6.920;2022-07-09T07:30:04;89368.75;;;-144.48;27.31
4123;BME280;2075;51.062;6.920;2022-07-09T07:32:50;88918.38;;;-144.48;26.52
4123;BME280;2075;51.062;6.920;2022-07-09T07:35:35;87997.56;;;-144.48;24.65
4123;BME280;2075;51.062;6.920;2022-07-09T07:38:21;87129.69;;;-144.48;23.19
4123;BME280;2075;51.062;6.920;2022-07-09T07:41:06;86592.44;;;-144.48;22.79
4123;BME280;2075;51.062;6.920;2022-07-09T07:43:53;87819.09;;;-144.48;23.85
4123;BME280;2075;51.062;6.920;2022-07-09T07:46:38;86991.81;;;-144.48;22.85
4123;BME280;2075;51.062;6.920;2022-07-09T07:49:23;88070.56;;;-144.48;23.98
4123;BME280;2075;51.062;6.920;2022-07-09T07:52:09;88930.56;;;-144.48;25.84
4123;BME280;2075;51.062;6.920;2022-07-09T07:54:54;87981.31;;;-144.48;24.26
4123;BME280;2075;51.062;6.920;2022-07-09T07:57:40;87308.09;;;-144.48;23.36
4123;BME280;2075;51.062;6.920;2022-07-09T08:00:27;87470.31;;;-144.48;23.50
4123;BME280;2075;51.062;6.920;2022-07-09T08:03:12;86501.22;;;-144.48;22.13
4123;BME280;2075;51.062;6.920;2022-07-09T08:05:57;87287.84;;;-144.48;23.07
4123;BME280;2075;51.062;6.920;2022-07-09T08:08:43;88616.13;;;-144.48;25.01
4123;BME280;2075;51.062;6.920;2022-07-09T08:11:28;88281.47;;;-144.48;24.48
4123;BME280;2075;51.062;6.920;2022-07-09T08:14:14;88934.59;;;-144.48;25.99
4123;BME280;2075;51.062;6.920;2022-07-09T08:17:01;88401.16;;;-144.48;24.68
4123;BME280;2075;51.062;6.920;2022-07-09T08:19:46;88423.47;;;-144.48;24.47
4123;BME280;2075;51.062;6.920;2022-07-09T08:22:32;88634.41;;;-144.48;24.65
4123;BME280;2075;51.062;6.920;2022-07-09T08:25:17;88654.69;;;-144.48;25.31
4123;BME280;2075;51.062;6.920;2022-07-09T08:28:03;89888.16;;;-144.48;27.73
4123;BME280;2075;51.062;6.920;2022-07-09T08:30:48;90133.69;;;-144.48;28.58
4123;BME280;2075;51.062;6.920;2022-07-09T08:33:35;90125.56;;;-144.48;28.85
4123;BME280;2075;51.062;6.920;2022-07-09T08:36:21;89119.22;;;-144.48;26.21
4123;BME280;2075;51.062;6.920;2022-07-09T08:39:07;89206.44;;;-144.48;25.94
4123;BME280;2075;51.062;6.920;2022-07-09T08:41:55;88378.84;;;-144.48;24.43
4123;BME280;2075;51.062;6.920;2022-07-09T08:44:47;88174.00;;;-144.48;23.71
4123;BME280;2075;51.062;6.920;2022-07-09T08:47:34;87924.53;;;-144.48;23.61
4123;BME280;2075;51.062;6.920;2022-07-09T08:50:21;87628.47;;;-144.48;23.17
4123;BME280;2075;51.062;6.920;2022-07-09T08:53:07;88606.00;;;-144.48;24.83
4123;BME280;2075;51.062;6.920;2022-07-09T08:55:54;89458.00;;;-144.48;26.68
4123;BME280;2075;51.062;6.920;2022-07-09T08:58:39;89500.63;;;-144.48;27.00
4123;BME280;2075;51.062;6.920;2022-07-09T09:01:25;89401.19;;;-144.48;26.71
4123;BME280;2075;51.062;6.920;2022-07-09T09:04:11;89577.72;;;-144.48;27.25
4123;BME280;2075;51.062;6.920;2022-07-09T09:06:58;89947.00;;;-144.48;27.97
4123;BME280;2075;51.062;6.920;2022-07-09T09:09:44;89936.84;;;-144.48;28.01
4123;BME280;2075;51.062;6.920;2022-07-09T09:12:30;89350.47;;;-144.48;26.34
4123;BME280;2075;51.062;6.920;2022-07-09T09:15:17;89271.34;;;-144.48;26.33
4123;BME280;2075;51.062;6.920;2022-07-09T09:18:02;89543.22;;;-144.48;27.04
4123;BME280;2075;51.062;6.920;2022-07-09T09:20:47;90241.22;;;-144.48;28.69
4123;BME280;2075;51.062;6.920;2022-07-09T09:23:41;90675.53;;;-144.48;30.18
4123;BME280;2075;51.062;6.920;2022-07-09T09:26:27;91113.94;;;-144.48;32.20
4123;BME280;2075;51.062;6.920;2022-07-09T09:29:13;91140.31;;;-144.48;32.34
4123;BME280;2075;51.062;6.920;2022-07-09T09:32:08;90919.09;;;-144.48;32.43
4123;BME280;2075;51.062;6.920;2022-07-09T09:34:54;90886.59;;;-144.48;31.63
4123;BME280;2075;51.062;6.920;2022-07-09T09:37:42;90969.81;;;-144.48;31.88
4123;BME280;2075;51.062;6.920;2022-07-09T09:40:29;90910.97;;;-144.48;31.83
4123;BME280;2075;51.062;6.920;2022-07-09T09:43:19;90756.72;;;-144.48;31.09
4123;BME280;2075;51.062;6.920;2022-07-09T09:46:08;90789.19;;;-144.48;31.01
4123;BME280;2075;51.062;6.920;2022-07-09T09:48:55;90858.19;;;-144.48;31.39
4123;BME280;2075;51.062;6.920;2022-07-09T09:51:46;91091.59;;;-144.48;32.64
4123;BME280;2075;51.062;6.920;2022-07-09T09:54:33;91154.53;;;-144.48;33.13
4123;BME280;2075;51.062;6.920;2022-07-09T09:57:21;90996.22;;;-144.48;31.88
4123;BME280;2075;51.062;6.920;2022-07-09T10:00:10;90803.38;;;-144.48;31.20
4123;BME280;2075;51.062;6.920;2022-07-09T10:02:57;90815.56;;;-144.48;31.24
4123;BME280;2075;51.062;6.920;2022-07-09T10:05:42;90762.81;;;-144.48;30.95
4123;BME280;2075;51.062;6.920;2022-07-09T10:08:28;90929.22;;;-144.48;31.50
4123;BME280;2075;51.062;6.920;2022-07-09T10:11:14;90961.69;;;-144.48;32.39
4123;BME280;2075;51.062;6.920;2022-07-09T10:14:01;91040.88;;;-144.48;31.93
4123;BME280;2075;51.062;6.920;2022-07-09T10:16:46;91004.31;;;-144.48;32.24
4123;BME280;2075;51.062;6.920;2022-07-09T10:19:32;90998.25;;;-144.48;32.25
4123;BME280;2075;51.062;6.920;2022-07-09T10:22:17;90971.84;;;-144.48;32.37
4123;BME280;2075;51.062;6.920;2022-07-09T10:25:03;91012.44;;;-144.48;33.06
4123;BME280;2075;51.062;6.920;2022-07-09T10:27:49;90951.56;;;-144.48;32.80
4123;BME280;2075;51.062;6.920;2022-07-09T10:30:36;90679.59;;;-144.48;31.59
4123;BME280;2075;51.062;6.920;2022-07-09T10:33:22;90594.34;;;-144.48;31.10
4123;BME280;2075;51.062;6.920;2022-07-09T10:36:14;90643.06;;;-144.48;31.34
4123;BME280;2075;51.062;6.920;2022-07-09T10:39:00;90545.63;;;-144.48;31.39
4123;BME280;2075;51.062;6.920;2022-07-09T10:42:00;90618.69;;;-144.48;31.74
4123;BME280;2075;51.062;6.920;2022-07-09T10:44:46;90594.34;;;-144.48;30.92
4123;BME280;2075;51.062;6.920;2022-07-09T10:47:38;90647.13;;;-144.48;31.01
4123;BME280;2075;51.062;6.920;2022-07-09T10:50:24;90900.81;;;-144.48;32.03
4123;BME280;2075;51.062;6.920;2022-07-09T10:53:11;91077.41;;;-144.48;33.40
4123;BME280;2075;51.062;6.920;2022-07-09T10:55:56;91099.72;;;-144.48;33.88
4123;BME280;2075;51.062;6.920;2022-07-09T10:58:45;91122.06;;;-144.48;34.16
4123;BME280;2075;51.062;6.920;2022-07-09T11:01:31;91016.50;;;-144.48;33.51
4123;BME280;2075;51.062;6.920;2022-07-09T11:04:28;90882.53;;;-144.48;33.51
4123;BME280;2075;51.062;6.920;2022-07-09T11:07:19;90898.78;;;-144.48;32.82
4123;BME280;2075;51.062;6.920;2022-07-09T11:10:06;90955.63;;;-144.48;32.97
4123;BME280;2075;51.062;6.920;2022-07-09T11:12:51;91085.53;;;-144.48;33.47
4123;BME280;2075;51.062;6.920;2022-07-09T11:15:38;91260.09;;;-144.48;34.15
4123;BME280;2075;51.062;6.920;2022-07-09T11:18:26;91223.56;;;-144.48;34.42
4123;BME280;2075;51.062;6.920;2022-07-09T11:21:21;91272.25;;;-144.48;34.64
4123;BME280;2075;51.062;6.920;2022-07-09T11:24:12;91341.28;;;-144.48;34.44
4123;BME280;2075;51.062;6.920;2022-07-09T11:27:01;91219.50;;;-144.48;34.18
4123;BME280;2075;51.062;6.920;2022-07-09T11:29:47;91363.63;;;-144.48;34.82
4123;BME280;2075;51.062;6.920;2022-07-09T11:32:33;91475.25;;;-144.48;35.98
4123;BME280;2075;51.062;6.920;2022-07-09T11:35:28;91416.41;;;-144.48;36.24
4123;BME280;2075;51.062;6.920;2022-07-09T11:38:15;91473.22;;;-144.48;36.16
4123;BME280;2075;51.062;6.920;2022-07-09T11:41:01;91325.03;;;-144.48;35.87
4123;BME280;2075;51.062;6.920;2022-07-09T11:43:47;91294.59;;;-144.48;35.58
4123;BME280;2075;51.062;6.920;2022-07-09T11:46:33;91325.03;;;-144.48;35.36
4123;BME280;2075;51.062;6.920;2022-07-09T11:49:18;91223.56;;;-144.48;34.94
4123;BME280;2075;51.062;6.920;2022-07-09T11:52:18;91178.91;;;-144.48;34.50
4123;BME280;2075;51.062;6.920;2022-07-09T11:55:07;91215.44;;;-144.48;34.55
4123;BME280;2075;51.062;6.920;2022-07-09T11:57:54;91225.56;;;-144.48;34.13
4123;BME280;2075;51.062;6.920;2022-07-09T12:00:40;91420.44;;;-144.48;35.37
4123;BME280;2075;51.062;6.920;2022-07-09T12:03:26;91398.13;;;-144.48;35.51
4123;BME280;2075;51.062;6.920;2022-07-09T12:06:12;91280.38;;;-144.48;35.24
4123;BME280;2075;51.062;6.920;2022-07-09T12:08:59;91278.34;;;-144.48;35.18
4123;BME280;2075;51.062;6.920;2022-07-09T12:11:46;91355.50;;;-144.48;35.12
4123;BME280;2075;51.062;6.920;2022-07-09T12:14:31;91223.56;;;-144.48;34.29
4123;BME280;2075;51.062;6.920;2022-07-09T12:17:18;91280.38;;;-144.48;34.56
4123;BME280;2075;51.062;6.920;2022-07-09T12:20:05;91282.41;;;-144.48;35.01
4123;BME280;2075;51.062;6.920;2022-07-09T12:22:53;91278.34;;;-144.48;34.55
4123;BME280;2075;51.062;6.920;2022-07-09T12:25:39;91296.63;;;-144.48;34.89
4123;BME280;2075;51.062;6.920;2022-07-09T12:28:26;91442.78;;;-144.48;35.76
4123;BME280;2075;51.062;6.920;2022-07-09T12:31:12;91442.78;;;-144.48;36.53
4123;BME280;2075;51.062;6.920;2022-07-09T12:33:57;91438.72;;;-144.48;36.25
4123;BME280;2075;51.062;6.920;2022-07-09T12:36:42;91304.75;;;-144.48;36.19
4123;BME280;2075;51.062;6.920;2022-07-09T12:39:28;91337.22;;;-144.48;36.23
4123;BME280;2075;51.062;6.920;2022-07-09T12:42:13;91320.97;;;-144.48;36.42
4123;BME280;2075;51.062;6.920;2022-07-09T12:45:00;91631.56;;;-144.48;36.47
4123;BME280;2075;51.062;6.920;2022-07-09T12:47:46;91298.66;;;-144.48;36.64
4123;BME280;2075;51.062;6.920;2022-07-09T12:50:32;91296.63;;;-144.48;36.18
4123;BME280;2075;51.062;6.920;2022-07-09T12:53:17;91341.28;;;-144.48;36.29
4123;BME280;2075;51.062;6.920;2022-07-09T12:56:03;91416.41;;;-144.48;37.05
4123;BME280;2075;51.062;6.920;2022-07-09T12:58:49;91499.63;;;-144.48;37.60
4123;BME280;2075;51.062;6.920;2022-07-09T13:01:36;91357.53;;;-144.48;38.09
4123;BME280;2075;51.062;6.920;2022-07-09T13:04:22;91605.19;;;-144.48;38.58
4123;BME280;2075;51.062;6.920;2022-07-09T13:07:07;91682.34;;;-144.48;39.37
4123;BME280;2075;51.062;6.920;2022-07-09T13:09:52;91757.44;;;-144.48;40.08
4123;BME280;2075;51.062;6.920;2022-07-09T13:12:38;91759.47;;;-144.48;40.98
4123;BME280;2075;51.062;6.920;2022-07-09T13:15:24;91791.97;;;-144.48;41.55
4123;BME280;2075;51.062;6.920;2022-07-09T13:18:10;91739.19;;;-144.48;41.56
4123;BME280;2075;51.062;6.920;2022-07-09T13:20:56;91698.56;;;-144.48;41.24
4123;BME280;2075;51.062;6.920;2022-07-09T13:23:41;91688.41;;;-144.48;41.19
4123;BME280;2075;51.062;6.920;2022-07-09T13:26:26;91755.41;;;-144.48;41.84
4123;BME280;2075;51.062;6.920;2022-07-09T13:29:12;91848.81;;;-144.48;43.21
4123;BME280;2075;51.062;6.920;2022-07-09T13:31:57;91881.28;;;-144.48;44.58
4123;BME280;2075;51.062;6.920;2022-07-09T13:34:44;91895.50;;;-144.48;45.99
4123;BME280;2075;51.062;6.920;2022-07-09T13:37:30;91942.19;;;-144.48;47.40
4123;BME280;2075;51.062;6.920;2022-07-09T13:40:17;91966.56;;;-144.48;48.56
4123;BME280;2075;51.062;6.920;2022-07-09T13:43:03;92015.28;;;-144.48;49.06
4123;BME280;2075;51.062;6.920;2022-07-09T13:45:48;92015.28;;;-144.48;48.27
4123;BME280;2075;51.062;6.920;2022-07-09T13:48:33;91984.84;;;-144.48;47.74
4123;BME280;2075;51.062;6.920;2022-07-09T13:51:21;91887.38;;;-144.48;47.14
4123;BME280;2075;51.062;6.920;2022-07-09T13:54:06;91737.16;;;-144.48;45.13
4123;BME280;2075;51.062;6.920;2022-07-09T13:56:52;91631.56;;;-144.48;43.04
4123;BME280;2075;51.062;6.920;2022-07-09T13:59:39;91570.69;;;-144.48;42.12
4123;BME280;2075;51.062;6.920;2022-07-09T14:02:25;91633.59;;;-144.48;42.88
4123;BME280;2075;51.062;6.920;2022-07-09T14:05:10;91550.38;;;-144.48;41.82
4123;BME280;2075;51.062;6.920;2022-07-09T14:07:57;91505.72;;;-144.48;41.65
4123;BME280;2075;51.062;6.920;2022-07-09T14:10:44;91664.06;;;-144.48;43.13
4123;BME280;2075;51.062;6.920;2022-07-09T14:13:29;91826.47;;;-144.48;44.99
4123;BME280;2075;51.062;6.920;2022-07-09T14:16:15;91952.34;;;-144.48;48.27
4123;BME280;2075;51.062;6.920;2022-07-09T14:19:00;91901.59;;;-144.48;49.61
4123;BME280;2075;51.062;6.920;2022-07-09T14:21:45;92015.28;;;-144.48;50.50
4123;BME280;2075;51.062;6.920;2022-07-09T14:24:32;92015.28;;;-144.48;51.73
4123;BME280;2075;51.062;6.920;2022-07-09T14:27:18;92029.50;;;-144.48;51.43
4123;BME280;2075;51.062;6.920;2022-07-09T14:30:04;91966.56;;;-144.48;51.22
4123;BME280;2075;51.062;6.920;2022-07-09T14:32:49;91905.66;;;-144.48;50.48
4123;BME280;2075;51.062;6.920;2022-07-09T14:35:34;91958.44;;;-144.48;51.03
4123;BME280;2075;51.062;6.920;2022-07-09T14:38:20;92001.06;;;-144.48;51.80